createdAt,value
2023-05-11T00:02:06.158Z,3.63
2023-05-11T00:06:59.374Z,4.47
2023-05-11T00:11:53.299Z,5.28
2023-05-11T00:16:46.536Z,5.63
2023-05-11T00:21:39.255Z,4.05
2023-05-11T00:26:32.395Z,2.55
2023-05-11T00:31:30.151Z,3.35
2023-05-11T00:36:23.649Z,3.05
2023-05-11T00:41:17.254Z,3.53
2023-05-11T00:46:10.944Z,2.85
2023-05-11T00:51:05.282Z,2.17
2023-05-11T00:55:59.536Z,2.00
2023-05-11T01:00:53.131Z,3.33
2023-05-11T01:06:05.877Z,2.20
2023-05-11T01:11:11.729Z,4.60
2023-05-11T01:16:27.389Z,2.05
2023-05-11T01:21:24.688Z,1.10
2023-05-11T01:26:44.712Z,1.40
2023-05-11T01:36:53.150Z,1.30
2023-05-11T01:41:47.091Z,0.93
2023-05-11T01:46:40.926Z,1.00
2023-05-11T01:51:37.739Z,0.85
2023-05-11T01:56:32.147Z,0.80
2023-05-11T02:01:26.037Z,1.10
2023-05-11T02:06:24.351Z,1.75
2023-05-11T02:11:17.863Z,1.30
2023-05-11T02:16:12.711Z,1.83
2023-05-11T02:21:06.215Z,2.63
2023-05-11T02:25:59.136Z,5.13
2023-05-11T02:30:56.449Z,1.95
2023-05-11T02:35:51.078Z,2.25
2023-05-11T02:40:48.914Z,1.73
2023-05-11T02:45:45.086Z,2.50
2023-05-11T02:50:41.326Z,1.20
2023-05-11T02:55:36.163Z,2.47
2023-05-11T03:00:29.204Z,1.20
2023-05-11T03:05:22.918Z,1.17
2023-05-11T03:10:16.832Z,1.40
2023-05-11T03:15:14.918Z,1.45
2023-05-11T03:20:11.090Z,1.38
2023-05-11T03:25:04.602Z,1.48
2023-05-11T03:29:58.266Z,1.95
2023-05-11T03:34:51.462Z,1.45
2023-05-11T03:39:47.313Z,2.25
2023-05-11T03:44:42.045Z,2.08
2023-05-11T03:49:34.789Z,1.45
2023-05-11T03:54:29.209Z,1.30
2023-05-11T03:59:23.233Z,1.63
2023-05-11T04:04:17.154Z,1.50
2023-05-11T04:09:10.375Z,3.97
2023-05-11T04:14:04.211Z,1.10
2023-05-11T04:18:57.085Z,1.00
2023-05-11T04:23:50.237Z,1.35
2023-05-11T04:28:43.883Z,1.52
2023-05-11T04:33:37.763Z,0.70
2023-05-11T04:38:31.841Z,0.95
2023-05-11T04:43:24.747Z,1.38
2023-05-11T04:48:20.706Z,0.77
2023-05-11T04:53:14.115Z,1.23
2023-05-11T04:58:07.036Z,1.88
2023-05-11T05:02:59.906Z,0.80
2023-05-11T05:07:53.640Z,0.90
2023-05-11T05:12:47.212Z,0.98
2023-05-11T05:17:40.772Z,1.23
2023-05-11T05:22:34.560Z,1.27
2023-05-11T05:27:29.496Z,1.40
2023-05-11T05:32:23.269Z,1.20
2023-05-11T05:37:17.236Z,1.10
2023-05-11T05:42:11.242Z,1.45
2023-05-11T05:47:05.202Z,1.40
2023-05-11T05:52:01.271Z,1.10
2023-05-11T05:56:57.749Z,1.08
2023-05-11T06:01:51.183Z,1.40
2023-05-11T06:06:44.470Z,3.65
2023-05-11T06:11:38.726Z,3.38
2023-05-11T06:16:31.998Z,2.30
2023-05-11T06:21:26.136Z,3.25
2023-05-11T06:26:20.354Z,2.33
2023-05-11T06:31:16.034Z,3.97
2023-05-11T06:36:09.926Z,4.60
2023-05-11T06:41:03.257Z,5.45
2023-05-11T06:45:56.428Z,4.97
2023-05-11T06:50:50.375Z,4.38
2023-05-11T06:55:43.628Z,6.38
2023-05-11T07:00:38.527Z,4.50
2023-05-11T07:05:32.268Z,8.82
2023-05-11T07:10:26.531Z,5.07
2023-05-11T07:15:19.793Z,5.22
2023-05-11T07:20:14.459Z,4.43
2023-05-11T07:25:28.802Z,4.22
2023-05-11T07:30:22.412Z,4.85
2023-05-11T07:35:16.472Z,7.97
2023-05-11T07:40:09.648Z,8.60
2023-05-11T07:45:03.020Z,4.93
2023-05-11T07:49:57.677Z,5.68
2023-05-11T07:54:51.456Z,4.78
2023-05-11T07:59:45.428Z,8.05
2023-05-11T08:04:39.040Z,5.57
2023-05-11T08:09:33.123Z,4.95
2023-05-11T08:14:26.351Z,3.90
2023-05-11T08:19:19.888Z,3.72
2023-05-11T08:24:13.529Z,4.97
2023-05-11T08:29:07.975Z,4.15
2023-05-11T08:34:01.645Z,3.00
2023-05-11T08:38:58.961Z,2.20
2023-05-11T08:43:53.416Z,2.83
2023-05-11T08:48:47.268Z,6.22
2023-05-11T08:53:40.884Z,1.38
2023-05-11T08:58:34.265Z,2.00
2023-05-11T09:03:31.004Z,2.85
2023-05-11T09:08:24.591Z,2.63
2023-05-11T09:13:17.688Z,3.00
2023-05-11T09:18:11.203Z,3.63
2023-05-11T09:23:05.169Z,3.60
2023-05-11T09:28:00.708Z,4.15
2023-05-11T09:33:01.577Z,3.58
2023-05-11T09:38:14.670Z,4.80
2023-05-11T09:43:18.795Z,5.72
2023-05-11T09:48:31.736Z,4.85
2023-05-11T09:53:39.761Z,8.05
2023-05-11T09:58:56.837Z,6.00
2023-05-11T10:04:08.824Z,6.50
2023-05-11T10:09:11.409Z,7.10
2023-05-11T10:14:06.492Z,6.05
2023-05-11T10:19:00.804Z,8.20
2023-05-11T10:23:53.434Z,5.22
2023-05-11T10:28:46.747Z,3.65
2023-05-11T10:33:44.731Z,3.40
2023-05-11T10:38:36.621Z,5.53
2023-05-11T10:44:03.928Z,4.22
2023-05-11T10:49:15.139Z,3.70
2023-05-11T10:54:44.653Z,2.55
2023-05-11T11:00:10.119Z,1.30
2023-05-11T11:05:35.290Z,1.67
2023-05-11T11:10:37.769Z,2.35
2023-05-11T11:15:59.583Z,0.70
2023-05-11T11:20:54.596Z,2.58
2023-05-11T11:25:53.912Z,0.80
2023-05-11T11:30:48.272Z,2.47
2023-05-11T11:35:41.338Z,5.00
2023-05-11T11:46:04.098Z,1.23
2023-05-11T11:51:08.624Z,0.85
2023-05-11T11:56:02.344Z,0.73
2023-05-11T12:00:58.035Z,1.60
2023-05-11T12:05:55.491Z,0.63
2023-05-11T12:10:55.894Z,1.17
2023-05-11T12:15:49.876Z,0.75
2023-05-11T12:20:43.244Z,2.13
2023-05-11T12:25:36.939Z,0.80
2023-05-11T12:30:35.806Z,0.82
2023-05-11T12:35:29.865Z,0.93
2023-05-11T12:40:23.879Z,1.38
2023-05-11T12:45:17.580Z,2.47
2023-05-11T12:50:11.900Z,2.35
2023-05-11T12:55:07.383Z,1.33
2023-05-11T13:00:16.043Z,0.85
2023-05-11T13:05:15.007Z,0.55
2023-05-11T13:10:11.189Z,1.08
2023-05-11T13:15:14.327Z,4.35
2023-05-11T13:20:21.513Z,1.00
2023-05-11T13:25:22.323Z,0.70
2023-05-11T13:30:15.640Z,0.60
2023-05-11T13:35:11.090Z,0.98
2023-05-11T13:40:05.819Z,0.70
2023-05-11T13:44:58.599Z,0.50
2023-05-11T13:49:54.479Z,1.55
2023-05-11T13:54:47.193Z,0.65
2023-05-11T13:59:41.859Z,1.50
2023-05-11T14:04:35.377Z,3.45
2023-05-11T14:09:28.509Z,1.05
2023-05-11T14:14:21.769Z,0.70
2023-05-11T14:19:15.827Z,1.13
2023-05-11T14:24:12.657Z,1.00
2023-05-11T14:29:05.640Z,0.80
2023-05-11T14:34:00.253Z,1.65
2023-05-11T14:38:53.059Z,1.15
2023-05-11T14:43:47.723Z,1.77
2023-05-11T14:48:41.157Z,2.80
2023-05-11T14:53:35.388Z,1.42
2023-05-11T14:58:29.121Z,0.75
2023-05-11T15:03:23.089Z,0.60
2023-05-11T15:08:29.070Z,0.50
2023-05-11T15:13:23.872Z,0.50
2023-05-11T15:18:17.636Z,0.50
2023-05-11T15:23:12.956Z,2.08
2023-05-11T15:28:06.741Z,3.45
2023-05-11T15:33:00.225Z,2.85
2023-05-11T15:37:53.050Z,1.67
2023-05-11T15:42:47.205Z,1.98
2023-05-11T15:47:41.272Z,0.93
2023-05-11T15:52:34.304Z,0.60
2023-05-11T15:57:27.817Z,2.15
2023-05-11T16:02:21.491Z,4.38
2023-05-11T16:07:14.767Z,1.75
2023-05-11T16:12:08.921Z,1.33
2023-05-11T16:17:02.635Z,2.25
2023-05-11T16:21:56.295Z,1.00
2023-05-11T16:26:50.291Z,1.15
2023-05-11T16:31:43.864Z,2.65
2023-05-11T16:36:38.656Z,0.43
2023-05-11T16:41:31.731Z,1.55
2023-05-11T16:46:26.301Z,1.63
2023-05-11T16:51:20.290Z,0.80
2023-05-11T16:56:14.390Z,2.22
2023-05-11T17:01:08.063Z,0.55
2023-05-11T17:06:01.281Z,1.40
2023-05-11T17:10:53.825Z,0.98
2023-05-11T17:15:47.839Z,0.75
2023-05-11T17:20:40.399Z,0.60
2023-05-11T17:25:33.820Z,0.60
2023-05-11T17:30:36.403Z,0.73
2023-05-11T17:35:39.837Z,0.60
2023-05-11T17:40:33.952Z,1.77
2023-05-11T17:45:27.122Z,2.78
2023-05-11T17:50:20.884Z,0.70
2023-05-11T17:55:14.778Z,1.02
2023-05-11T18:00:10.336Z,2.47
2023-05-11T18:05:04.672Z,3.25
2023-05-11T18:09:57.796Z,0.95
2023-05-11T18:14:51.401Z,3.55
2023-05-11T18:19:45.932Z,1.48
2023-05-11T18:24:39.103Z,2.95
2023-05-11T18:29:32.657Z,2.53
2023-05-11T18:34:25.869Z,1.00
2023-05-11T18:39:19.787Z,0.95
2023-05-11T18:44:15.832Z,3.78
2023-05-11T18:49:08.808Z,2.40
2023-05-11T18:54:02.487Z,0.80
2023-05-11T18:58:55.126Z,1.58
2023-05-11T19:03:49.248Z,1.08
2023-05-11T19:08:43.028Z,1.25
2023-05-11T19:13:36.485Z,1.40
2023-05-11T19:18:31.275Z,2.10
2023-05-11T19:23:25.289Z,1.65
2023-05-11T19:28:19.273Z,2.63
2023-05-11T19:33:12.891Z,1.60
2023-05-11T19:38:26.081Z,3.03
2023-05-11T19:43:19.296Z,2.05
2023-05-11T19:48:14.225Z,1.95
2023-05-11T19:53:08.844Z,2.17
2023-05-11T19:58:01.609Z,1.70
2023-05-11T20:02:55.598Z,1.58
2023-05-11T20:07:48.769Z,1.52
2023-05-11T20:12:41.564Z,1.88
2023-05-11T20:17:36.321Z,1.77
2023-05-11T20:22:30.289Z,1.95
2023-05-11T20:27:24.906Z,2.15
2023-05-11T20:32:19.076Z,3.65
2023-05-11T20:37:12.617Z,3.33
2023-05-11T20:42:07.650Z,2.75
2023-05-11T20:47:02.100Z,2.63
2023-05-11T20:51:54.641Z,2.72
2023-05-11T20:56:48.420Z,3.47
2023-05-11T21:01:43.053Z,2.58
2023-05-11T21:06:37.633Z,4.28
2023-05-11T21:11:30.968Z,3.15
2023-05-11T21:16:24.106Z,2.05
2023-05-11T21:21:17.359Z,2.10
2023-05-11T21:26:10.712Z,3.97
2023-05-11T21:31:04.437Z,2.72
2023-05-11T21:35:59.828Z,1.80
2023-05-11T21:40:56.797Z,2.25
2023-05-11T21:45:50.592Z,4.25
2023-05-11T21:50:44.570Z,3.40
2023-05-11T21:55:37.679Z,3.58
2023-05-11T22:00:33.216Z,5.00
2023-05-11T22:05:27.364Z,3.72
2023-05-11T22:10:21.291Z,4.25
2023-05-11T22:15:15.341Z,5.05
2023-05-11T22:20:14.965Z,5.60
2023-05-11T22:25:10.938Z,3.17
2023-05-11T22:30:04.911Z,3.05
2023-05-11T22:35:02.063Z,2.95
2023-05-11T22:39:55.328Z,3.15
2023-05-11T22:44:49.127Z,2.80
2023-05-11T22:49:42.805Z,3.03
2023-05-11T22:54:37.204Z,4.25
2023-05-11T22:59:35.111Z,2.42
2023-05-11T23:04:31.224Z,5.18
2023-05-11T23:09:24.841Z,3.72
2023-05-11T23:14:17.563Z,4.03
2023-05-11T23:19:10.310Z,4.88
2023-05-11T23:24:03.397Z,5.82
2023-05-11T23:28:56.130Z,6.80
2023-05-11T23:33:49.327Z,4.78
2023-05-11T23:38:43.568Z,5.38
2023-05-11T23:43:37.863Z,6.25
2023-05-11T23:48:31.349Z,6.10
2023-05-11T23:53:24.448Z,8.00
2023-05-11T23:58:18.475Z,6.05
